Forside
METAR-TAF:

METAR-TAF

Lufthavne :

Baraboo Wisconsin Dells Airport

Baraboo / Wisconsin Dells, Wisconsin, USA

Breddekreds: 43-31-19N, længdekreds: 089-46-15W, højde: 298 m

Aktuelle vejr

Denne rapport blev lavet for 18 minutter siden, kl. 13:55 UTC
Vind 6 kt fra nordøst
Temperatur 0°C
Fugtighed 86%
Tryk 1020 hPa
Sigt: 16.1 km
Overskyet i en højde af 1600 ft

METAR: KDLL 311355Z AUTO 04006KT 10SM OVC016 00/M02 A3011 RMK AO2 T00001022

Tid: 09:13 (14:13 UTC)


TAF: fraværende

Vejrobservationer og prognoser fra mere end 4000 lufthavne (METAR og TAF).

De gule og røde prikker repræsenterer de meteorologiske stationer.

Flyt musen over at se navnet på stationen.

Så klik over at se vejr observationer og prognoser.

At skifte det kort: Klik på de grønne knapper med et sort kors for at zoome ind; på den grønne knap med en bindestreg for at zoome ud; eller på de grønne pile for tilstødende kort.


METAR-TAF: